Time;durP1;ratioP1;P1;durP2;ratioP2;P2;SDS_P1;SDS_P2;PMS_P1;PMS_P2;Temp;Humidity;BMP_temperature;BMP_pressure;BME280_temperature;BME280_humidity;BME280_pressure;Samples;Min_cycle;Max_cycle;Signal;HPM_P1;HPM_P2
2023/01/30 00:02:16;;;;;;;14.15;12.52;;;;;;;;;;5000376;28;20173;-50
2023/01/30 00:04:42;;;;;;;13.57;11.93;;;;;;;;;;5000384;28;20169;-50
2023/01/30 00:07:07;;;;;;;13.50;12.20;;;;;;;;;;5000474;28;20177;-50
2023/01/30 00:09:33;;;;;;;13.68;12.32;;;;;;;;;;5000248;28;20169;-50
2023/01/30 00:11:59;;;;;;;13.15;11.82;;;;;;;;;;4999978;28;20411;-50
2023/01/30 00:14:25;;;;;;;13.07;11.77;;;;;;;;;;5000159;28;20173;-50
2023/01/30 00:16:51;;;;;;;12.23;11.13;;;;;;;;;;5000375;28;20169;-49
2023/01/30 00:19:17;;;;;;;12.85;11.52;;;;;;;;;;5000227;28;20172;-49
2023/01/30 00:21:43;;;;;;;11.52;10.38;;;;;;;;;;4999479;28;20193;-50
2023/01/30 00:24:09;;;;;;;12.20;10.90;;;;;;;;;;5000123;28;20171;-50
2023/01/30 00:26:35;;;;;;;11.85;10.65;;;;;;;;;;5004903;28;20595;-50
2023/01/30 00:29:00;;;;;;;11.43;10.23;;;;;;;;;;5011659;28;20193;-50
2023/01/30 00:31:26;;;;;;;12.10;10.88;;;;;;;;;;5006420;28;20216;-49
2023/01/30 00:33:52;;;;;;;12.30;10.40;;;;;;;;;;5013910;28;20212;-50
2023/01/30 00:36:18;;;;;;;10.85;9.75;;;;;;;;;;5010132;28;20254;-50
2023/01/30 00:38:44;;;;;;;10.60;9.55;;;;;;;;;;5015421;28;20188;-49
2023/01/30 00:41:12;;;;;;;10.95;9.85;;;;;;;;;;5012611;28;20182;-49
2023/01/30 00:49:13;;;;;;;10.05;9.05;;;;;;;;;;5011075;28;20582;-50
2023/01/30 00:51:39;;;;;;;10.05;9.05;;;;;;;;;;5007239;28;20252;-49
2023/01/30 00:54:05;;;;;;;8.80;8.00;;;;;;;;;;5015653;28;20222;-49
2023/01/30 00:56:31;;;;;;;8.70;7.80;;;;;;;;;;5012167;28;20282;-50
2023/01/30 00:58:57;;;;;;;8.63;7.82;;;;;;;;;;5012109;28;20259;-50
2023/01/30 01:01:23;;;;;;;9.15;8.25;;;;;;;;;;5005532;28;20218;-50
2023/01/30 01:03:49;;;;;;;9.13;8.23;;;;;;;;;;5008565;28;20196;-50
2023/01/30 01:06:15;;;;;;;8.82;7.97;;;;;;;;;;5013449;28;20184;-50
2023/01/30 01:08:41;;;;;;;8.20;7.40;;;;;;;;;;5012475;28;20465;-50
2023/01/30 01:11:07;;;;;;;8.50;7.70;;;;;;;;;;5011295;28;20234;-50
2023/01/30 01:13:33;;;;;;;7.82;7.15;;;;;;;;;;5011543;28;20227;-50
2023/01/30 01:15:58;;;;;;;8.85;7.95;;;;;;;;;;5004589;28;20201;-50
2023/01/30 01:18:24;;;;;;;7.93;7.13;;;;;;;;;;5006996;28;20454;-50
2023/01/30 01:20:50;;;;;;;8.15;7.35;;;;;;;;;;5011340;28;20184;-50
2023/01/30 01:23:16;;;;;;;7.50;6.80;;;;;;;;;;5007297;28;20176;-50
2023/01/30 01:25:42;;;;;;;7.38;6.68;;;;;;;;;;5010997;28;20290;-50
2023/01/30 01:28:08;;;;;;;7.57;6.85;;;;;;;;;;5006214;28;20251;-50
2023/01/30 01:30:34;;;;;;;8.35;6.90;;;;;;;;;;5009667;28;20256;-50
2023/01/30 01:33:00;;;;;;;7.55;6.85;;;;;;;;;;5007787;28;20192;-50
2023/01/30 01:35:26;;;;;;;7.20;6.50;;;;;;;;;;5008834;28;20208;-50
2023/01/30 01:37:55;;;;;;;7.30;6.40;;;;;;;;;;5012645;28;20187;-50
2023/01/30 01:43:17;;;;;;;7.00;6.30;;;;;;;;;;5010509;28;20272;-50
2023/01/30 01:45:44;;;;;;;6.88;6.22;;;;;;;;;;5012751;28;20180;-50
2023/01/30 01:48:12;;;;;;;7.07;6.38;;;;;;;;;;5012143;28;20498;-50
2023/01/30 01:50:42;;;;;;;7.10;6.40;;;;;;;;;;5010792;28;20259;-50
2023/01/30 01:53:09;;;;;;;6.18;5.57;;;;;;;;;;5011016;28;20207;-50
2023/01/30 01:55:35;;;;;;;6.22;5.68;;;;;;;;;;5008604;28;20210;-50
2023/01/30 01:58:08;;;;;;;6.85;6.20;;;;;;;;;;5012865;28;20169;-49
2023/01/30 02:00:34;;;;;;;6.50;5.88;;;;;;;;;;5007013;28;20556;-50
2023/01/30 02:03:02;;;;;;;6.45;5.68;;;;;;;;;;5005538;28;20192;-50
2023/01/30 02:05:30;;;;;;;6.38;5.78;;;;;;;;;;5012437;28;20192;-50
2023/01/30 02:08:03;;;;;;;6.32;5.72;;;;;;;;;;5013938;28;20180;-50
2023/01/30 02:10:34;;;;;;;5.90;5.40;;;;;;;;;;5008885;28;20172;-50
2023/01/30 02:13:00;;;;;;;5.60;5.10;;;;;;;;;;5007905;28;20566;-49
2023/01/30 02:15:26;;;;;;;6.65;5.88;;;;;;;;;;5010880;28;20258;-50
2023/01/30 02:17:51;;;;;;;6.35;5.50;;;;;;;;;;5004552;28;20177;-50
2023/01/30 02:20:32;;;;;;;6.05;5.45;;;;;;;;;;5012408;28;20598;-50
2023/01/30 02:23:04;;;;;;;5.32;4.82;;;;;;;;;;5015627;28;20196;-50
2023/01/30 02:25:46;;;;;;;5.60;5.10;;;;;;;;;;5006878;28;20638;-49
2023/01/30 02:28:24;;;;;;;5.70;4.72;;;;;;;;;;5013473;28;20826;-50
2023/01/30 02:31:08;;;;;;;5.50;5.00;;;;;;;;;;4999913;28;20813;-50
2023/01/30 02:33:34;;;;;;;5.95;5.38;;;;;;;;;;5007718;28;20187;-50
2023/01/30 02:36:14;;;;;;;5.88;5.28;;;;;;;;;;5005332;28;20208;-50
2023/01/30 02:38:59;;;;;;;5.53;5.03;;;;;;;;;;5012735;28;20438;-50
2023/01/30 02:41:46;;;;;;;5.45;4.95;;;;;;;;;;5012435;28;20188;-50
2023/01/30 02:44:31;;;;;;;5.20;4.70;;;;;;;;;;5000582;28;20473;-49
2023/01/30 02:47:18;;;;;;;5.60;5.10;;;;;;;;;;5014079;28;20238;-50
2023/01/30 02:49:51;;;;;;;5.20;4.63;;;;;;;;;;5010084;28;20187;-50
2023/01/30 02:52:17;;;;;;;5.45;4.95;;;;;;;;;;5006953;28;20517;-50
2023/01/30 02:54:43;;;;;;;5.57;4.97;;;;;;;;;;5013464;28;20619;-50
2023/01/30 02:57:22;;;;;;;5.53;5.07;;;;;;;;;;5012923;28;20188;-49
2023/01/30 02:59:50;;;;;;;5.75;5.00;;;;;;;;;;5013810;28;20588;-49
2023/01/30 03:02:26;;;;;;;5.35;4.85;;;;;;;;;;5007572;28;20191;-50
2023/01/30 03:05:11;;;;;;;5.18;4.68;;;;;;;;;;5013513;28;20234;-50
2023/01/30 03:07:43;;;;;;;5.38;4.88;;;;;;;;;;5008629;28;20422;-50
2023/01/30 03:10:16;;;;;;;5.43;4.78;;;;;;;;;;5008399;28;20253;-50
2023/01/30 03:12:48;;;;;;;5.55;5.03;;;;;;;;;;5005243;28;20508;-50
2023/01/30 03:15:20;;;;;;;4.82;4.32;;;;;;;;;;5007863;28;20244;-49
2023/01/30 03:17:47;;;;;;;5.45;4.70;;;;;;;;;;5004042;28;20189;-49
2023/01/30 03:20:13;;;;;;;4.95;4.45;;;;;;;;;;5007621;28;20216;-49
2023/01/30 03:22:39;;;;;;;5.20;4.70;;;;;;;;;;5011888;28;20192;-49
2023/01/30 03:25:06;;;;;;;5.10;4.60;;;;;;;;;;5009785;28;20223;-49
2023/01/30 03:27:32;;;;;;;4.72;4.32;;;;;;;;;;5009628;28;20236;-49
2023/01/30 03:29:58;;;;;;;5.35;4.85;;;;;;;;;;5003499;28;20193;-49
2023/01/30 03:32:24;;;;;;;4.90;4.50;;;;;;;;;;5010869;28;20184;-49
2023/01/30 03:34:50;;;;;;;4.95;4.45;;;;;;;;;;5011450;28;20576;-49
2023/01/30 03:37:16;;;;;;;4.80;4.40;;;;;;;;;;5011322;28;20188;-49
2023/01/30 03:39:42;;;;;;;4.25;3.95;;;;;;;;;;5007958;28;20766;-49
2023/01/30 03:42:08;;;;;;;4.53;4.13;;;;;;;;;;5006047;28;20745;-49
2023/01/30 03:44:34;;;;;;;4.43;4.03;;;;;;;;;;5005545;28;20255;-49
2023/01/30 03:46:59;;;;;;;4.35;3.92;;;;;;;;;;5005185;28;20405;-49
2023/01/30 03:49:25;;;;;;;4.30;3.90;;;;;;;;;;5008146;28;20185;-49
2023/01/30 03:51:51;;;;;;;4.30;3.90;;;;;;;;;;5001926;28;20244;-49
2023/01/30 03:54:17;;;;;;;4.85;4.35;;;;;;;;;;5011380;28;20184;-49
2023/01/30 03:56:43;;;;;;;4.30;3.90;;;;;;;;;;5009520;28;20243;-49
2023/01/30 03:59:09;;;;;;;4.72;4.32;;;;;;;;;;5004313;28;20223;-49
2023/01/30 04:01:35;;;;;;;4.65;4.22;;;;;;;;;;5009359;28;20256;-49
2023/01/30 04:04:01;;;;;;;4.28;3.92;;;;;;;;;;5009426;28;20181;-48
2023/01/30 04:06:27;;;;;;;4.32;3.92;;;;;;;;;;5007214;28;20181;-49
2023/01/30 04:08:53;;;;;;;4.55;4.15;;;;;;;;;;4999749;28;20271;-49
2023/01/30 04:11:19;;;;;;;4.10;3.80;;;;;;;;;;5014621;28;20250;-48
2023/01/30 04:13:45;;;;;;;4.15;3.78;;;;;;;;;;5016328;28;20169;-49
2023/01/30 04:16:29;;;;;;;4.85;3.80;;;;;;;;;;5010699;28;20517;-49
2023/01/30 04:18:55;;;;;;;4.13;3.72;;;;;;;;;;5000353;28;20185;-49
2023/01/30 04:21:21;;;;;;;4.03;3.67;;;;;;;;;;5013825;28;20199;-49
2023/01/30 04:23:47;;;;;;;4.00;3.60;;;;;;;;;;5017855;28;20176;-49
2023/01/30 04:26:13;;;;;;;4.20;3.80;;;;;;;;;;5009877;28;20200;-49
2023/01/30 04:28:39;;;;;;;3.67;3.38;;;;;;;;;;5004111;28;20234;-49
2023/01/30 04:31:05;;;;;;;4.20;3.80;;;;;;;;;;5013142;28;20239;-49
2023/01/30 04:33:34;;;;;;;4.68;3.30;;;;;;;;;;5016761;28;20177;-49
2023/01/30 04:36:00;;;;;;;3.53;3.22;;;;;;;;;;5013096;28;20598;-49
2023/01/30 04:38:27;;;;;;;3.80;3.38;;;;;;;;;;5005426;28;20177;-49
2023/01/30 04:40:54;;;;;;;3.42;3.13;;;;;;;;;;5016459;28;20235;-49
2023/01/30 04:43:21;;;;;;;3.58;3.28;;;;;;;;;;5010951;28;20180;-50
2023/01/30 04:45:47;;;;;;;3.67;3.38;;;;;;;;;;5010301;28;20188;-50
2023/01/30 04:48:13;;;;;;;3.30;3.00;;;;;;;;;;5002734;28;20193;-50
2023/01/30 04:50:39;;;;;;;3.75;3.45;;;;;;;;;;5011721;28;20215;-50
2023/01/30 04:53:05;;;;;;;3.10;2.78;;;;;;;;;;5012741;28;20267;-50
2023/01/30 04:55:31;;;;;;;3.20;2.92;;;;;;;;;;5014078;28;20327;-48
2023/01/30 04:57:57;;;;;;;3.53;3.22;;;;;;;;;;5011254;28;20172;-49
2023/01/30 05:00:23;;;;;;;2.90;2.70;;;;;;;;;;5010906;28;20460;-49
2023/01/30 05:02:49;;;;;;;3.08;2.80;;;;;;;;;;5016159;28;20196;-50
2023/01/30 05:05:15;;;;;;;3.10;2.80;;;;;;;;;;5010213;28;20347;-50
2023/01/30 05:07:41;;;;;;;3.45;3.00;;;;;;;;;;5013097;28;20655;-49
2023/01/30 05:10:07;;;;;;;3.33;3.03;;;;;;;;;;5010573;28;20627;-50
2023/01/30 05:12:33;;;;;;;3.20;2.90;;;;;;;;;;5011885;28;20188;-50
2023/01/30 05:15:00;;;;;;;2.95;2.70;;;;;;;;;;5009753;28;20588;-50
2023/01/30 05:17:26;;;;;;;3.05;2.60;;;;;;;;;;5010503;28;20496;-50
2023/01/30 05:19:52;;;;;;;2.72;2.53;;;;;;;;;;5015343;28;20271;-50
2023/01/30 05:22:18;;;;;;;2.67;2.47;;;;;;;;;;5011473;28;20268;-49
2023/01/30 05:24:44;;;;;;;2.70;2.50;;;;;;;;;;5009873;28;20447;-50
2023/01/30 05:27:09;;;;;;;2.75;2.55;;;;;;;;;;5010503;28;20290;-50
2023/01/30 05:29:35;;;;;;;2.60;2.40;;;;;;;;;;5015379;28;20211;-50
2023/01/30 05:32:02;;;;;;;2.60;2.40;;;;;;;;;;5015220;28;20187;-50
2023/01/30 05:34:28;;;;;;;3.10;2.80;;;;;;;;;;5013380;28;20212;-49
2023/01/30 05:36:55;;;;;;;3.15;2.90;;;;;;;;;;5012417;28;20472;-50
2023/01/30 05:39:21;;;;;;;3.05;2.80;;;;;;;;;;5011433;28;20259;-49
2023/01/30 05:41:47;;;;;;;2.65;2.45;;;;;;;;;;5005153;28;20178;-49
2023/01/30 05:44:13;;;;;;;2.88;2.67;;;;;;;;;;5007062;28;20185;-49
2023/01/30 05:46:39;;;;;;;2.55;2.35;;;;;;;;;;5014484;28;20483;-50
2023/01/30 05:49:06;;;;;;;2.53;2.33;;;;;;;;;;5014714;28;20195;-49
2023/01/30 05:51:32;;;;;;;2.22;2.08;;;;;;;;;;5012471;28;20681;-49
2023/01/30 05:53:58;;;;;;;2.78;2.58;;;;;;;;;;5013522;28;20184;-50
2023/01/30 05:56:24;;;;;;;2.50;2.30;;;;;;;;;;4998370;28;20248;-50
2023/01/30 05:58:51;;;;;;;2.50;2.30;;;;;;;;;;5003093;28;20259;-50
2023/01/30 06:01:17;;;;;;;2.53;2.33;;;;;;;;;;5006600;28;20213;-49
2023/01/30 06:03:43;;;;;;;2.65;2.45;;;;;;;;;;5008773;28;20212;-50
2023/01/30 06:06:09;;;;;;;2.35;2.15;;;;;;;;;;5010032;28;20538;-50
2023/01/30 06:08:35;;;;;;;2.42;2.22;;;;;;;;;;5004603;28;20292;-50
2023/01/30 06:11:02;;;;;;;2.40;2.20;;;;;;;;;;5006562;28;20263;-50
2023/01/30 06:13:28;;;;;;;2.30;2.10;;;;;;;;;;5010783;28;20191;-50
2023/01/30 06:15:54;;;;;;;2.25;2.05;;;;;;;;;;5003084;28;20204;-49
2023/01/30 06:18:20;;;;;;;2.42;2.20;;;;;;;;;;5014563;28;20184;-50
2023/01/30 06:20:48;;;;;;;2.40;2.20;;;;;;;;;;5014497;28;20626;-49
2023/01/30 06:23:14;;;;;;;2.60;2.40;;;;;;;;;;5012083;28;20212;-50
2023/01/30 06:25:42;;;;;;;2.30;2.10;;;;;;;;;;5008604;28;20208;-49
2023/01/30 06:28:08;;;;;;;2.97;2.10;;;;;;;;;;5015209;28;20258;-49
2023/01/30 06:30:34;;;;;;;1.92;1.83;;;;;;;;;;5004861;28;20272;-50
2023/01/30 06:33:00;;;;;;;2.38;2.17;;;;;;;;;;5009941;28;20181;-49
2023/01/30 06:35:26;;;;;;;2.47;2.22;;;;;;;;;;5011159;28;20208;-49
2023/01/30 06:37:52;;;;;;;2.40;2.20;;;;;;;;;;5013875;28;20563;-49
2023/01/30 06:40:18;;;;;;;2.20;2.10;;;;;;;;;;5015127;28;20222;-49
2023/01/30 06:42:45;;;;;;;1.90;1.80;;;;;;;;;;5014505;28;20226;-50
2023/01/30 06:45:11;;;;;;;2.05;1.90;;;;;;;;;;5004040;28;20211;-50
2023/01/30 06:47:44;;;;;;;2.10;1.90;;;;;;;;;;5011593;28;20185;-50
2023/01/30 06:50:10;;;;;;;1.98;1.88;;;;;;;;;;5010260;28;20180;-49
2023/01/30 06:52:39;;;;;;;2.00;1.90;;;;;;;;;;5012200;28;20184;-49
2023/01/30 06:55:05;;;;;;;2.13;1.95;;;;;;;;;;5011675;28;20212;-50
2023/01/30 06:57:31;;;;;;;1.90;1.80;;;;;;;;;;5012348;28;20220;-49
2023/01/30 06:59:57;;;;;;;1.90;1.80;;;;;;;;;;5007555;28;20270;-49
2023/01/30 07:02:23;;;;;;;1.85;1.75;;;;;;;;;;5009799;28;20193;-49
2023/01/30 07:04:49;;;;;;;1.70;1.60;;;;;;;;;;5014705;28;20191;-49
2023/01/30 07:07:15;;;;;;;1.75;1.65;;;;;;;;;;5005639;28;20197;-49
2023/01/30 07:09:41;;;;;;;1.80;1.70;;;;;;;;;;5008924;28;20181;-49
2023/01/30 07:12:07;;;;;;;1.80;1.70;;;;;;;;;;5009314;28;20176;-50
2023/01/30 07:14:33;;;;;;;1.83;1.73;;;;;;;;;;5007148;28;20184;-49
2023/01/30 07:16:58;;;;;;;2.03;1.83;;;;;;;;;;5008332;28;20211;-49
2023/01/30 07:19:24;;;;;;;1.88;1.67;;;;;;;;;;5011221;28;20293;-49
2023/01/30 07:21:50;;;;;;;2.15;1.63;;;;;;;;;;5014259;28;20521;-49
2023/01/30 07:24:16;;;;;;;2.00;1.80;;;;;;;;;;5004196;28;20181;-49
2023/01/30 07:26:42;;;;;;;5.85;2.55;;;;;;;;;;5010758;28;20219;-49
2023/01/30 07:29:08;;;;;;;4.30;1.80;;;;;;;;;;5009205;28;20259;-49
2023/01/30 07:31:34;;;;;;;1.80;1.70;;;;;;;;;;5006998;28;20286;-49
2023/01/30 07:34:00;;;;;;;3.88;2.03;;;;;;;;;;5010182;28;20184;-49
2023/01/30 07:36:26;;;;;;;4.43;1.98;;;;;;;;;;5008965;28;20275;-50
2023/01/30 07:38:52;;;;;;;2.40;1.52;;;;;;;;;;5011961;28;20219;-50
2023/01/30 07:41:17;;;;;;;3.35;1.83;;;;;;;;;;5012117;28;20216;-50
2023/01/30 07:43:43;;;;;;;3.67;1.75;;;;;;;;;;5011994;28;20181;-49
2023/01/30 07:46:09;;;;;;;4.20;1.63;;;;;;;;;;5001702;28;20595;-50
2023/01/30 07:48:35;;;;;;;6.60;1.73;;;;;;;;;;5016443;28;20172;-50
2023/01/30 07:51:01;;;;;;;2.05;1.30;;;;;;;;;;5009011;28;20208;-49
2023/01/30 07:53:27;;;;;;;2.10;1.50;;;;;;;;;;5007166;28;20504;-50
2023/01/30 07:55:53;;;;;;;7.15;1.70;;;;;;;;;;5016334;28;20231;-50
2023/01/30 07:58:19;;;;;;;3.03;1.70;;;;;;;;;;5017480;28;20615;-50
2023/01/30 08:00:45;;;;;;;6.47;1.80;;;;;;;;;;5008712;28;20185;-50
2023/01/30 08:03:12;;;;;;;4.28;1.65;;;;;;;;;;5016770;28;20824;-49
2023/01/30 08:05:38;;;;;;;6.63;2.05;;;;;;;;;;5011541;28;20191;-50
2023/01/30 08:08:04;;;;;;;3.75;1.65;;;;;;;;;;5013639;28;20185;-50
2023/01/30 08:10:29;;;;;;;2.10;1.60;;;;;;;;;;5011379;28;20208;-50
2023/01/30 08:12:55;;;;;;;3.55;2.00;;;;;;;;;;5017302;28;20188;-49
2023/01/30 08:15:21;;;;;;;2.55;1.50;;;;;;;;;;5015980;28;20205;-49
2023/01/30 08:17:53;;;;;;;5.85;1.98;;;;;;;;;;5016679;28;20466;-50
2023/01/30 08:20:19;;;;;;;4.50;1.60;;;;;;;;;;5015921;28;20203;-50
2023/01/30 08:22:45;;;;;;;2.72;1.70;;;;;;;;;;5009654;28;20172;-49
2023/01/30 08:25:11;;;;;;;2.97;1.40;;;;;;;;;;5017599;28;20231;-49
2023/01/30 08:27:37;;;;;;;4.53;1.40;;;;;;;;;;5016424;28;20220;-50
2023/01/30 08:30:03;;;;;;;2.20;1.50;;;;;;;;;;5011795;28;20200;-50
2023/01/30 08:32:29;;;;;;;2.53;1.45;;;;;;;;;;5015520;28;20181;-49
2023/01/30 08:34:55;;;;;;;2.58;1.50;;;;;;;;;;5017321;28;20200;-51
2023/01/30 08:37:21;;;;;;;3.28;1.40;;;;;;;;;;5017249;28;20231;-49
2023/01/30 08:39:50;;;;;;;2.30;1.55;;;;;;;;;;5016899;28;20172;-50
2023/01/30 08:42:16;;;;;;;2.80;1.45;;;;;;;;;;5011285;28;20198;-50
2023/01/30 08:44:42;;;;;;;4.40;1.50;;;;;;;;;;5005887;28;20652;-50
2023/01/30 08:47:07;;;;;;;2.53;1.50;;;;;;;;;;5011992;28;20208;-50
2023/01/30 08:49:33;;;;;;;3.42;1.60;;;;;;;;;;5010687;28;20264;-50
2023/01/30 08:51:59;;;;;;;2.65;1.20;;;;;;;;;;5009348;28;20188;-50
2023/01/30 08:54:25;;;;;;;2.00;1.48;;;;;;;;;;5014978;28;20243;-49
2023/01/30 08:56:52;;;;;;;2.42;1.30;;;;;;;;;;5008795;28;20212;-50
2023/01/30 08:59:18;;;;;;;1.88;1.20;;;;;;;;;;5011982;28;20195;-50
2023/01/30 09:01:43;;;;;;;3.20;1.58;;;;;;;;;;5007676;28;20189;-50
2023/01/30 09:04:09;;;;;;;2.53;1.25;;;;;;;;;;5006535;28;20224;-50
2023/01/30 09:06:35;;;;;;;1.98;1.40;;;;;;;;;;5015720;28;20185;-50
2023/01/30 09:09:01;;;;;;;2.45;1.23;;;;;;;;;;5009881;28;20200;-50
2023/01/30 09:11:27;;;;;;;3.15;1.20;;;;;;;;;;5009442;28;20192;-49
2023/01/30 09:13:53;;;;;;;1.63;1.20;;;;;;;;;;5012801;28;20547;-50
2023/01/30 09:16:19;;;;;;;1.42;1.10;;;;;;;;;;5013856;28;20214;-50
2023/01/30 09:18:45;;;;;;;1.23;1.10;;;;;;;;;;5011511;28;20189;-50
2023/01/30 09:21:11;;;;;;;1.35;1.10;;;;;;;;;;5013191;28;20267;-51
2023/01/30 09:23:38;;;;;;;3.35;1.30;;;;;;;;;;5016179;28;20184;-50
2023/01/30 09:26:04;;;;;;;2.17;1.40;;;;;;;;;;5004778;28;20300;-50
2023/01/30 09:28:30;;;;;;;1.63;1.20;;;;;;;;;;5010718;28;20196;-50
2023/01/30 09:30:56;;;;;;;1.30;1.15;;;;;;;;;;5011704;28;20304;-50
2023/01/30 09:33:22;;;;;;;2.90;1.00;;;;;;;;;;5014468;28;20188;-50
2023/01/30 09:35:49;;;;;;;1.90;1.30;;;;;;;;;;5015183;28;20211;-50
2023/01/30 09:38:15;;;;;;;1.35;1.20;;;;;;;;;;5011883;28;20210;-49
2023/01/30 09:40:53;;;;;;;1.10;1.00;;;;;;;;;;5005151;28;20216;-50
2023/01/30 09:43:19;;;;;;;1.77;0.90;;;;;;;;;;5009861;28;20195;-49
2023/01/30 09:45:50;;;;;;;1.30;1.20;;;;;;;;;;5014970;28;20188;-49
2023/01/30 09:48:19;;;;;;;1.00;0.90;;;;;;;;;;5013700;28;20184;-49
2023/01/30 09:50:58;;;;;;;1.58;1.10;;;;;;;;;;5012932;28;20192;-49
2023/01/30 09:53:42;;;;;;;1.25;1.02;;;;;;;;;;5003994;28;20177;-50
2023/01/30 09:56:08;;;;;;;1.77;1.15;;;;;;;;;;5008016;28;20244;-50
2023/01/30 09:58:47;;;;;;;1.35;1.25;;;;;;;;;;5015250;28;20218;-50
2023/01/30 10:01:18;;;;;;;1.70;1.20;;;;;;;;;;5012254;28;20180;-50
2023/01/30 10:04:10;;;;;;;1.30;1.20;;;;;;;;;;5013863;28;20172;-50
2023/01/30 10:06:39;;;;;;;2.15;1.00;;;;;;;;;;4991831;28;20207;-50
2023/01/30 10:09:15;;;;;;;1.58;1.15;;;;;;;;;;5010381;28;20195;-50
2023/01/30 10:11:55;;;;;;;1.17;1.10;;;;;;;;;;5010765;28;20181;-50
2023/01/30 10:14:26;;;;;;;1.13;0.90;;;;;;;;;;5001835;28;20192;-50
2023/01/30 10:17:00;;;;;;;1.60;1.10;;;;;;;;;;5012819;28;20282;-50
2023/01/30 10:19:44;;;;;;;1.00;1.00;;;;;;;;;;5001808;28;20181;-50
2023/01/30 10:22:29;;;;;;;1.30;1.02;;;;;;;;;;5012166;28;20223;-50
2023/01/30 10:25:12;;;;;;;1.35;1.00;;;;;;;;;;5007025;28;20453;-49
2023/01/30 10:27:40;;;;;;;1.33;0.95;;;;;;;;;;5014140;28;20624;-49
2023/01/30 10:30:07;;;;;;;0.90;0.90;;;;;;;;;;5012390;28;20224;-50
2023/01/30 10:32:54;;;;;;;0.90;0.90;;;;;;;;;;5009116;28;20417;-50
2023/01/30 10:35:21;;;;;;;1.63;0.95;;;;;;;;;;5006137;28;20286;-50
2023/01/30 10:37:50;;;;;;;1.10;0.70;;;;;;;;;;5001742;28;20184;-50
2023/01/30 10:40:43;;;;;;;0.88;0.80;;;;;;;;;;5014736;28;20599;-50
2023/01/30 10:43:17;;;;;;;1.23;0.85;;;;;;;;;;4984745;28;20197;-50
2023/01/30 10:46:03;;;;;;;1.05;1.00;;;;;;;;;;5005129;28;20257;-50
2023/01/30 10:48:45;;;;;;;2.15;1.00;;;;;;;;;;5006995;28;20276;-50
2023/01/30 10:51:17;;;;;;;0.98;0.90;;;;;;;;;;4999287;28;20272;-50
2023/01/30 10:53:50;;;;;;;1.50;0.77;;;;;;;;;;5011101;28;20195;-49
2023/01/30 10:56:37;;;;;;;1.45;0.90;;;;;;;;;;5011609;28;20212;-50
2023/01/30 10:59:05;;;;;;;1.05;0.88;;;;;;;;;;5012163;28;20198;-50
2023/01/30 11:01:35;;;;;;;1.08;1.00;;;;;;;;;;5005456;28;20236;-50
2023/01/30 11:04:11;;;;;;;0.82;0.68;;;;;;;;;;5010260;28;20191;-50
2023/01/30 11:06:37;;;;;;;0.82;0.82;;;;;;;;;;5009038;28;20195;-50
2023/01/30 11:09:03;;;;;;;1.13;0.80;;;;;;;;;;5004569;28;20184;-50
2023/01/30 11:11:32;;;;;;;2.25;0.80;;;;;;;;;;5007635;28;20277;-49
2023/01/30 11:14:05;;;;;;;2.15;0.98;;;;;;;;;;5008558;28;20188;-50
2023/01/30 11:16:33;;;;;;;0.77;0.77;;;;;;;;;;5014082;28;20216;-50
2023/01/30 11:19:03;;;;;;;0.70;0.70;;;;;;;;;;5009361;28;20184;-50
2023/01/30 11:21:30;;;;;;;2.15;1.00;;;;;;;;;;5010137;28;20199;-50
2023/01/30 11:23:56;;;;;;;2.28;0.90;;;;;;;;;;5017735;28;20176;-50
2023/01/30 11:26:24;;;;;;;1.27;0.80;;;;;;;;;;5015959;28;20234;-50
2023/01/30 11:28:50;;;;;;;0.73;0.73;;;;;;;;;;5011489;28;20192;-50
2023/01/30 11:31:18;;;;;;;1.45;0.80;;;;;;;;;;5017990;28;20451;-50
2023/01/30 11:33:44;;;;;;;3.33;0.80;;;;;;;;;;5012845;28;20180;-50
2023/01/30 11:36:30;;;;;;;1.40;0.70;;;;;;;;;;5017659;28;20948;-50
2023/01/30 11:39:01;;;;;;;4.18;1.20;;;;;;;;;;5013472;28;20489;-51
2023/01/30 11:41:28;;;;;;;6.63;1.30;;;;;;;;;;5009949;28;20177;-50
2023/01/30 11:44:01;;;;;;;1.95;1.30;;;;;;;;;;5012109;28;20181;-49
2023/01/30 11:46:29;;;;;;;3.47;1.45;;;;;;;;;;5017629;28;20501;-50
2023/01/30 11:48:57;;;;;;;4.45;1.20;;;;;;;;;;5011541;28;20187;-50
2023/01/30 11:51:24;;;;;;;8.32;1.73;;;;;;;;;;5009984;28;20267;-50
2023/01/30 11:54:01;;;;;;;3.30;1.17;;;;;;;;;;5004704;28;20318;-50
2023/01/30 11:56:41;;;;;;;3.35;1.00;;;;;;;;;;5013578;28;20305;-50
2023/01/30 11:59:20;;;;;;;3.63;1.40;;;;;;;;;;5007014;28;20838;-51
2023/01/30 12:01:46;;;;;;;3.90;1.30;;;;;;;;;;5017199;28;20184;-50
2023/01/30 12:04:12;;;;;;;5.07;1.45;;;;;;;;;;5008110;28;20203;-50
2023/01/30 12:06:39;;;;;;;2.33;1.30;;;;;;;;;;5014898;28;20188;-50
2023/01/30 12:09:06;;;;;;;2.40;0.90;;;;;;;;;;5013495;28;20206;-51
2023/01/30 12:11:41;;;;;;;2.88;1.23;;;;;;;;;;5014767;28;20185;-50
2023/01/30 12:14:25;;;;;;;4.45;1.33;;;;;;;;;;5016939;28;20180;-50
2023/01/30 12:17:01;;;;;;;3.80;1.30;;;;;;;;;;5014645;28;20216;-49
2023/01/30 12:19:35;;;;;;;11.02;1.20;;;;;;;;;;5013442;28;20551;-50
2023/01/30 12:22:08;;;;;;;3.28;1.25;;;;;;;;;;5010727;28;20259;-50
2023/01/30 12:24:45;;;;;;;5.70;1.05;;;;;;;;;;5016866;28;20189;-50
2023/01/30 12:27:24;;;;;;;2.45;1.33;;;;;;;;;;5017662;28;20227;-50
2023/01/30 12:29:56;;;;;;;3.38;1.20;;;;;;;;;;5000632;28;20192;-50
2023/01/30 12:32:25;;;;;;;2.95;1.15;;;;;;;;;;5013229;28;20324;-50
2023/01/30 12:34:51;;;;;;;1.98;1.00;;;;;;;;;;5005535;28;20192;-50
2023/01/30 12:37:19;;;;;;;1.20;0.98;;;;;;;;;;4999514;28;20557;-50
2023/01/30 12:39:55;;;;;;;1.33;0.98;;;;;;;;;;5009479;28;20604;-50
2023/01/30 12:42:31;;;;;;;1.20;0.90;;;;;;;;;;5000137;28;20177;-50
2023/01/30 12:44:57;;;;;;;3.85;1.13;;;;;;;;;;5004656;28;20194;-50
2023/01/30 12:47:30;;;;;;;4.57;1.30;;;;;;;;;;5003883;28;20522;-50
2023/01/30 12:49:56;;;;;;;6.13;1.30;;;;;;;;;;5007683;28;20594;-50
2023/01/30 12:52:24;;;;;;;1.95;1.02;;;;;;;;;;5006752;28;20189;-50
2023/01/30 12:54:52;;;;;;;3.55;1.10;;;;;;;;;;5003563;28;20618;-49
2023/01/30 12:57:33;;;;;;;3.55;1.20;;;;;;;;;;5018676;28;20303;-50
2023/01/30 13:00:14;;;;;;;1.20;1.00;;;;;;;;;;5010547;28;20168;-49
2023/01/30 13:02:52;;;;;;;3.42;1.05;;;;;;;;;;5016876;28;20488;-49
2023/01/30 13:05:36;;;;;;;3.35;1.27;;;;;;;;;;5011767;28;20306;-46
2023/01/30 13:08:14;;;;;;;1.35;1.08;;;;;;;;;;5005187;28;20193;-47
2023/01/30 13:10:46;;;;;;;2.25;1.10;;;;;;;;;;5004148;28;20201;-48
2023/01/30 13:13:28;;;;;;;1.38;0.95;;;;;;;;;;5012304;28;20184;-45
2023/01/30 13:16:00;;;;;;;3.72;0.90;;;;;;;;;;5014671;28;20262;-50
2023/01/30 13:18:32;;;;;;;3.67;0.80;;;;;;;;;;5002709;28;20173;-55
2023/01/30 13:21:06;;;;;;;3.00;0.88;;;;;;;;;;5015784;28;20192;-52
2023/01/30 13:23:41;;;;;;;1.20;0.80;;;;;;;;;;5012882;28;20266;-53
2023/01/30 13:26:09;;;;;;;2.42;0.77;;;;;;;;;;5009909;28;20195;-54
2023/01/30 13:28:37;;;;;;;1.35;0.90;;;;;;;;;;5015337;28;20238;-55
2023/01/30 13:31:05;;;;;;;0.82;0.80;;;;;;;;;;5009096;28;20216;-55
2023/01/30 13:33:33;;;;;;;3.35;1.10;;;;;;;;;;5006047;28;20877;-55
2023/01/30 13:36:17;;;;;;;1.92;0.90;;;;;;;;;;5008413;28;20291;-54
2023/01/30 13:38:56;;;;;;;2.10;0.90;;;;;;;;;;5006658;28;20200;-54
2023/01/30 13:41:22;;;;;;;2.75;0.80;;;;;;;;;;5013907;28;20207;-54
2023/01/30 13:43:51;;;;;;;1.95;0.82;;;;;;;;;;5007856;28;20735;-54
2023/01/30 13:46:22;;;;;;;1.13;0.77;;;;;;;;;;5008246;28;20192;-54
2023/01/30 13:48:54;;;;;;;2.72;0.98;;;;;;;;;;5014214;28;20191;-54
2023/01/30 13:51:32;;;;;;;4.80;1.02;;;;;;;;;;5004552;28;20561;-54
2023/01/30 13:54:17;;;;;;;3.45;0.70;;;;;;;;;;5006981;28;20239;-54
2023/01/30 13:56:50;;;;;;;4.72;1.23;;;;;;;;;;5015604;28;20319;-54
2023/01/30 13:59:16;;;;;;;3.55;1.08;;;;;;;;;;5013512;28;20524;-54
2023/01/30 14:02:17;;;;;;;7.80;1.23;;;;;;;;;;5011537;28;20204;-54
2023/01/30 14:04:44;;;;;;;4.07;0.88;;;;;;;;;;4966228;28;20182;-54
2023/01/30 14:07:21;;;;;;;1.77;1.00;;;;;;;;;;5003658;28;20200;-54
2023/01/30 14:10:06;;;;;;;2.45;0.80;;;;;;;;;;5007680;28;20215;-54
2023/01/30 14:12:37;;;;;;;3.58;0.93;;;;;;;;;;5015606;28;20187;-55
2023/01/30 14:15:12;;;;;;;2.90;0.70;;;;;;;;;;5014488;28;20180;-54
2023/01/30 14:17:37;;;;;;;5.03;0.90;;;;;;;;;;5007048;28;20207;-55
2023/01/30 14:20:05;;;;;;;4.07;0.95;;;;;;;;;;5008526;28;20252;-55
2023/01/30 14:22:46;;;;;;;5.05;0.75;;;;;;;;;;5007143;28;20226;-55
2023/01/30 14:25:21;;;;;;;1.77;0.90;;;;;;;;;;5008358;28;20184;-55
2023/01/30 14:27:55;;;;;;;1.67;0.88;;;;;;;;;;5009479;28;20196;-55
2023/01/30 14:30:30;;;;;;;3.28;0.98;;;;;;;;;;5015569;28;20199;-55
2023/01/30 14:32:56;;;;;;;1.83;1.08;;;;;;;;;;5006862;28;20184;-55
2023/01/30 14:35:24;;;;;;;1.92;1.00;;;;;;;;;;5014223;28;20212;-55
2023/01/30 14:37:51;;;;;;;1.02;0.73;;;;;;;;;;5013581;28;20242;-55
2023/01/30 14:40:20;;;;;;;2.58;0.82;;;;;;;;;;5014175;28;20198;-55
2023/01/30 14:43:06;;;;;;;1.05;0.80;;;;;;;;;;5012328;28;20208;-55
2023/01/30 14:45:43;;;;;;;1.50;0.80;;;;;;;;;;5014440;28;20188;-54
2023/01/30 14:48:29;;;;;;;2.33;1.00;;;;;;;;;;5012720;28;20262;-54
2023/01/30 14:51:14;;;;;;;4.38;0.88;;;;;;;;;;5012717;28;20176;-54
2023/01/30 14:53:58;;;;;;;1.35;0.80;;;;;;;;;;5012824;28;20184;-55
2023/01/30 14:56:33;;;;;;;3.67;0.70;;;;;;;;;;5014368;28;20296;-55
2023/01/30 14:59:01;;;;;;;1.30;0.80;;;;;;;;;;5014625;28;20314;-55
2023/01/30 15:01:27;;;;;;;2.00;0.80;;;;;;;;;;5014523;28;20193;-55
2023/01/30 15:03:53;;;;;;;2.08;0.75;;;;;;;;;;5004236;28;20552;-55